Time;durP1;ratioP1;P1;durP2;ratioP2;P2;SDS_P1;SDS_P2;PMS_P1;PMS_P2;Temp;Humidity;BMP_temperature;BMP_pressure;BME280_temperature;BME280_humidity;BME280_pressure;Samples;Min_cycle;Max_cycle;Signal;HPM_P1;HPM_P2
2023/06/20 00:01:32;;;;;;;14.00;12.80;;;17.40;99.90;;;;;;6238833;23;20331;-76
2023/06/20 00:03:58;;;;;;;13.23;12.02;;;17.40;99.90;;;;;;6239116;23;20331;-76
2023/06/20 00:06:23;;;;;;;13.60;12.32;;;17.50;99.90;;;;;;6238677;23;20020;-76
2023/06/20 00:08:50;;;;;;;14.75;13.00;;;17.50;99.90;;;;;;6239086;23;20016;-75
2023/06/20 00:11:16;;;;;;;13.38;12.18;;;17.50;99.90;;;;;;6238986;23;20009;-76
2023/06/20 00:13:42;;;;;;;13.73;12.43;;;17.60;99.90;;;;;;6239209;23;20008;-76
2023/06/20 00:16:09;;;;;;;13.90;12.57;;;17.60;99.90;;;;;;6239055;23;20036;-76
2023/06/20 00:18:35;;;;;;;13.55;12.32;;;17.60;99.90;;;;;;6239144;23;20016;-76
2023/06/20 00:21:00;;;;;;;14.05;12.68;;;17.60;99.90;;;;;;6212839;23;20012;-76
2023/06/20 00:23:29;;;;;;;14.23;12.95;;;17.60;99.90;;;;;;6213890;23;20008;-75
2023/06/20 00:25:58;;;;;;;13.85;12.55;;;17.60;99.90;;;;;;6188341;23;20457;-75
2023/06/20 00:28:23;;;;;;;13.77;12.38;;;17.60;99.90;;;;;;6188040;23;20453;-76
2023/06/20 00:30:49;;;;;;;14.23;12.93;;;17.60;99.90;;;;;;6213668;23;20080;-75
2023/06/20 00:33:18;;;;;;;14.38;13.07;;;17.60;99.90;;;;;;6213261;23;20035;-76
2023/06/20 00:35:44;;;;;;;13.75;12.45;;;17.60;99.90;;;;;;6188202;23;20051;-76
2023/06/20 00:38:09;;;;;;;15.48;13.98;;;17.60;99.90;;;;;;6213812;23;20013;-76
2023/06/20 00:40:35;;;;;;;14.27;12.77;;;17.60;99.90;;;;;;6213158;23;20099;-76
2023/06/20 00:43:01;;;;;;;14.80;13.50;;;17.60;99.90;;;;;;6213232;23;20479;-76
2023/06/20 00:45:33;;;;;;;15.30;13.75;;;17.60;99.90;;;;;;6213598;23;20372;-76
2023/06/20 00:48:01;;;;;;;14.38;12.88;;;17.60;99.90;;;;;;6212967;23;20009;-75
2023/06/20 00:50:28;;;;;;;13.38;12.10;;;17.50;99.90;;;;;;6213036;23;20080;-76
2023/06/20 00:52:58;;;;;;;14.35;12.95;;;17.50;99.90;;;;;;6213241;23;20332;-75
2023/06/20 00:55:24;;;;;;;14.52;13.20;;;17.50;99.90;;;;;;6213596;23;20423;-75
2023/06/20 00:57:50;;;;;;;13.55;12.35;;;17.50;99.90;;;;;;6213331;23;20453;-76
2023/06/20 01:00:15;;;;;;;13.82;12.52;;;17.50;99.90;;;;;;6163273;23;20048;-76
2023/06/20 01:02:47;;;;;;;13.73;12.43;;;17.50;99.90;;;;;;6212542;23;20031;-75
2023/06/20 01:05:16;;;;;;;13.88;12.57;;;17.60;99.90;;;;;;6213415;23;20094;-75
2023/06/20 01:07:58;;;;;;;12.25;10.95;;;17.50;99.90;;;;;;6213249;23;20008;-75
2023/06/20 01:10:39;;;;;;;12.47;11.27;;;17.60;99.90;;;;;;6188105;23;20008;-75
2023/06/20 01:13:18;;;;;;;12.45;11.32;;;17.60;99.90;;;;;;6213087;23;20460;-75
2023/06/20 01:16:05;;;;;;;12.48;11.13;;;17.60;99.90;;;;;;6213167;23;20392;-75
2023/06/20 01:19:17;;;;;;;12.10;10.93;;;17.60;99.90;;;;;;6188164;22;20084;-75
2023/06/20 01:21:50;;;;;;;12.68;11.48;;;17.70;99.90;;;;;;6149621;23;20013;-75
2023/06/20 01:24:22;;;;;;;13.00;11.80;;;17.70;99.90;;;;;;6213276;23;20016;-76
2023/06/20 01:27:07;;;;;;;13.40;12.20;;;17.70;99.90;;;;;;6212955;23;20493;-75
2023/06/20 01:29:56;;;;;;;13.73;12.32;;;17.80;99.90;;;;;;6187675;23;20044;-75
2023/06/20 01:32:23;;;;;;;13.45;12.15;;;17.80;99.90;;;;;;6213282;23;20047;-75
2023/06/20 01:34:56;;;;;;;13.68;12.38;;;17.80;99.90;;;;;;6213245;23;20012;-75
2023/06/20 01:37:22;;;;;;;;;;;17.80;99.90;;;;;;6213045;23;20009;-75
2023/06/20 01:39:54;;;;;;;13.95;12.65;;;17.90;99.90;;;;;;6186860;23;20195;-75
2023/06/20 01:42:26;;;;;;;13.43;12.23;;;17.90;99.90;;;;;;6213119;23;20013;-75
2023/06/20 01:44:55;;;;;;;14.15;12.65;;;17.80;99.90;;;;;;6213116;23;20008;-75
2023/06/20 01:47:22;;;;;;;15.18;13.52;;;17.80;99.90;;;;;;6212794;23;20009;-75
2023/06/20 01:49:51;;;;;;;14.32;12.93;;;17.80;99.90;;;;;;6212173;23;20013;-75
2023/06/20 01:52:18;;;;;;;15.15;13.75;;;17.90;99.90;;;;;;6212604;23;20012;-75
2023/06/20 01:54:46;;;;;;;14.88;13.48;;;17.80;99.90;;;;;;6187984;23;20016;-75
2023/06/20 01:57:12;;;;;;;14.77;13.35;;;17.90;99.90;;;;;;6212425;23;20009;-75
2023/06/20 01:59:40;;;;;;;15.85;14.35;;;17.80;99.90;;;;;;6212072;23;20445;-75
2023/06/20 02:02:06;;;;;;;13.88;12.65;;;17.80;99.90;;;;;;6212236;23;20017;-75
2023/06/20 02:04:34;;;;;;;15.40;14.10;;;17.80;99.90;;;;;;6212713;23;20081;-75
2023/06/20 02:07:02;;;;;;;14.52;13.32;;;17.70;99.90;;;;;;6212218;23;20040;-76
2023/06/20 02:09:28;;;;;;;16.02;14.45;;;17.70;99.90;;;;;;6212182;23;20519;-76
2023/06/20 02:11:55;;;;;;;15.98;14.57;;;17.80;99.90;;;;;;6212894;23;20016;-75
2023/06/20 02:14:20;;;;;;;14.85;13.32;;;17.70;99.90;;;;;;6212806;23;20013;-75
2023/06/20 02:16:48;;;;;;;16.42;14.82;;;17.60;99.90;;;;;;6162300;23;20416;-75
2023/06/20 02:19:14;;;;;;;16.83;15.32;;;17.60;99.90;;;;;;6217598;23;20027;-75
2023/06/20 02:21:43;;;;;;;17.20;15.55;;;17.60;99.90;;;;;;6237937;23;20044;-76
2023/06/20 02:24:14;;;;;;;16.83;15.25;;;17.70;99.90;;;;;;6187631;23;20013;-75
2023/06/20 02:26:43;;;;;;;16.45;14.82;;;17.70;99.90;;;;;;6237834;23;20460;-76
2023/06/20 02:29:10;;;;;;;17.23;15.75;;;17.70;99.90;;;;;;6236353;23;20016;-76
2023/06/20 02:31:40;;;;;;;17.92;16.20;;;17.80;99.90;;;;;;6237549;23;20382;-75
2023/06/20 02:34:08;;;;;;;18.33;16.80;;;17.80;99.90;;;;;;6238041;23;20012;-76
2023/06/20 02:36:35;;;;;;;17.77;16.20;;;17.80;99.90;;;;;;6237921;23;20016;-75
2023/06/20 02:39:01;;;;;;;19.23;17.50;;;17.90;99.90;;;;;;6236893;23;20016;-76
2023/06/20 02:41:27;;;;;;;18.15;16.52;;;17.90;99.90;;;;;;6237194;23;20352;-76
2023/06/20 02:43:53;;;;;;;18.95;17.23;;;17.90;99.90;;;;;;6237446;23;20020;-75
2023/06/20 02:46:27;;;;;;;19.00;17.33;;;17.90;99.90;;;;;;6187232;23;20524;-75
2023/06/20 02:49:16;;;;;;;19.48;17.85;;;17.90;99.90;;;;;;6186792;23;20019;-76
2023/06/20 02:51:56;;;;;;;19.60;17.85;;;17.90;99.90;;;;;;6237805;23;20067;-75
2023/06/20 02:54:39;;;;;;;20.00;18.33;;;18.00;99.90;;;;;;6187658;23;20059;-75
2023/06/20 02:57:11;;;;;;;20.88;19.02;;;17.90;99.90;;;;;;6237070;23;20052;-76
2023/06/20 02:59:39;;;;;;;22.27;20.30;;;17.90;99.90;;;;;;6237045;23;20456;-75
2023/06/20 03:02:07;;;;;;;22.00;20.10;;;18.00;99.90;;;;;;6187431;23;20020;-75
2023/06/20 03:04:34;;;;;;;21.77;19.65;;;18.00;99.90;;;;;;6237636;23;20083;-75
2023/06/20 03:07:03;;;;;;;21.90;19.95;;;17.90;99.90;;;;;;6237516;23;20031;-75
2023/06/20 03:09:35;;;;;;;22.58;20.58;;;17.90;99.90;;;;;;6236704;23;20004;-76
2023/06/20 03:12:01;;;;;;;22.80;20.75;;;17.90;99.90;;;;;;6237152;23;20008;-75
2023/06/20 03:14:26;;;;;;;22.77;20.90;;;18.00;99.90;;;;;;6187180;23;20334;-75
2023/06/20 03:16:52;;;;;;;22.00;20.10;;;18.00;99.90;;;;;;6237370;23;20016;-75
2023/06/20 03:19:17;;;;;;;22.50;20.60;;;18.00;99.90;;;;;;6237141;23;20044;-75
2023/06/20 03:21:43;;;;;;;23.20;21.15;;;18.00;99.90;;;;;;6237618;23;20453;-75
2023/06/20 03:24:08;;;;;;;23.73;21.70;;;18.00;99.90;;;;;;6236996;23;20016;-75
2023/06/20 03:26:36;;;;;;;24.02;22.02;;;18.10;99.90;;;;;;6237289;23;20012;-75
2023/06/20 03:29:02;;;;;;;23.58;21.48;;;18.10;99.90;;;;;;6236520;23;20337;-76
2023/06/20 03:31:28;;;;;;;24.08;21.77;;;18.00;99.90;;;;;;6237472;23;20016;-75
2023/06/20 03:33:53;;;;;;;23.35;21.35;;;18.10;99.90;;;;;;6186903;23;20013;-75
2023/06/20 03:36:19;;;;;;;24.85;22.50;;;18.10;99.90;;;;;;6237024;23;20020;-75
2023/06/20 03:38:44;;;;;;;23.88;21.80;;;18.00;99.90;;;;;;6236284;23;20465;-75
2023/06/20 03:41:10;;;;;;;23.70;21.48;;;18.00;99.90;;;;;;6237365;23;20091;-75
2023/06/20 03:43:35;;;;;;;24.20;22.05;;;18.10;99.90;;;;;;6186759;23;20551;-76
2023/06/20 03:46:01;;;;;;;23.75;21.75;;;18.00;99.90;;;;;;6236974;23;20016;-75
2023/06/20 03:48:26;;;;;;;23.77;21.60;;;18.10;99.90;;;;;;6236582;23;20024;-75
2023/06/20 03:50:52;;;;;;;25.45;23.17;;;18.10;99.90;;;;;;6237178;23;20009;-75
2023/06/20 03:53:18;;;;;;;23.75;21.70;;;18.10;99.90;;;;;;6187223;23;20013;-75
2023/06/20 03:55:43;;;;;;;24.17;22.08;;;18.10;99.90;;;;;;6237367;23;20013;-75
2023/06/20 03:58:09;;;;;;;24.25;22.00;;;18.10;99.90;;;;;;6235423;23;20012;-75
2023/06/20 04:00:34;;;;;;;24.55;22.42;;;18.10;99.90;;;;;;6236976;23;20012;-76
2023/06/20 04:03:01;;;;;;;23.77;21.48;;;18.10;99.90;;;;;;6237316;23;20413;-75
2023/06/20 04:05:27;;;;;;;24.45;22.27;;;18.10;99.90;;;;;;6237430;23;20024;-75
2023/06/20 04:07:53;;;;;;;24.90;22.80;;;18.10;99.90;;;;;;6236840;23;20013;-75
2023/06/20 04:10:19;;;;;;;23.17;21.27;;;18.20;99.90;;;;;;6236760;23;20008;-75
2023/06/20 04:12:45;;;;;;;24.10;21.95;;;18.20;99.90;;;;;;6237328;23;20016;-75
2023/06/20 04:15:11;;;;;;;23.65;21.67;;;18.30;99.90;;;;;;6237394;23;20019;-76
2023/06/20 04:17:37;;;;;;;24.17;22.17;;;18.20;99.90;;;;;;6235644;23;20345;-75
2023/06/20 04:20:10;;;;;;;24.00;21.90;;;18.30;99.90;;;;;;6235873;23;20038;-75
2023/06/20 04:22:36;;;;;;;22.92;20.98;;;18.30;99.90;;;;;;6237377;23;20347;-75
2023/06/20 04:25:02;;;;;;;22.73;20.92;;;18.30;99.90;;;;;;6239090;23;20091;-76
2023/06/20 04:27:27;;;;;;;23.75;21.73;;;18.40;99.90;;;;;;6238440;23;20024;-75
2023/06/20 04:29:53;;;;;;;24.15;21.95;;;18.40;99.90;;;;;;6239061;23;20095;-75
2023/06/20 04:32:18;;;;;;;23.05;21.02;;;18.40;99.90;;;;;;6238760;23;20008;-76
2023/06/20 04:34:44;;;;;;;23.08;21.10;;;18.50;99.90;;;;;;6188183;23;20023;-76
2023/06/20 04:37:09;;;;;;;22.60;20.67;;;18.40;99.90;;;;;;6238334;23;20441;-75
2023/06/20 04:39:35;;;;;;;22.95;21.05;;;18.50;99.90;;;;;;6237781;23;20020;-75
2023/06/20 04:42:01;;;;;;;22.40;20.48;;;18.50;99.90;;;;;;6239156;23;20063;-75
2023/06/20 04:44:27;;;;;;;22.73;20.70;;;18.50;99.90;;;;;;6238565;23;20020;-75
2023/06/20 04:46:55;;;;;;;22.85;20.85;;;18.50;99.90;;;;;;6238520;23;20567;-75
2023/06/20 04:49:21;;;;;;;23.58;21.52;;;18.50;99.90;;;;;;6238428;23;20154;-75
2023/06/20 04:51:47;;;;;;;23.45;21.05;;;18.50;99.90;;;;;;6238933;23;20048;-75
2023/06/20 04:54:12;;;;;;;23.13;21.13;;;18.60;99.90;;;;;;6239069;23;20012;-75
2023/06/20 04:56:40;;;;;;;23.10;20.98;;;18.60;99.90;;;;;;6238696;23;20017;-75
2023/06/20 04:59:06;;;;;;;22.33;20.38;;;18.60;99.90;;;;;;6237965;23;20031;-75
2023/06/20 05:01:32;;;;;;;22.42;20.52;;;18.70;99.90;;;;;;6238838;23;20023;-75
2023/06/20 05:03:58;;;;;;;22.40;20.52;;;18.80;99.90;;;;;;6238820;23;20009;-75
2023/06/20 05:06:24;;;;;;;21.85;20.00;;;18.80;99.90;;;;;;6236725;23;20013;-75
2023/06/20 05:08:52;;;;;;;22.00;20.05;;;18.90;99.90;;;;;;6238761;23;20196;-75
2023/06/20 05:11:18;;;;;;;22.73;20.63;;;18.90;99.90;;;;;;6237154;23;20020;-75
2023/06/20 05:13:43;;;;;;;22.27;20.45;;;18.90;99.90;;;;;;6187872;23;20011;-75
2023/06/20 05:16:09;;;;;;;21.95;20.05;;;18.90;99.90;;;;;;6187680;23;20051;-75
2023/06/20 05:18:34;;;;;;;22.75;20.77;;;19.10;99.90;;;;;;6188145;23;20074;-75
2023/06/20 05:21:00;;;;;;;22.38;20.48;;;19.10;99.90;;;;;;6213043;23;20017;-75
2023/06/20 05:23:26;;;;;;;22.83;20.83;;;19.10;99.90;;;;;;6212656;23;20075;-75
2023/06/20 05:25:52;;;;;;;22.92;21.02;;;19.10;99.90;;;;;;6210345;23;20024;-75
2023/06/20 05:28:17;;;;;;;23.15;21.15;;;19.20;99.90;;;;;;6209287;23;20012;-75
2023/06/20 05:30:43;;;;;;;22.60;20.60;;;19.10;99.90;;;;;;6210241;23;20012;-75
2023/06/20 05:33:08;;;;;;;23.02;20.98;;;19.10;99.90;;;;;;6210958;23;20016;-74
2023/06/20 05:35:34;;;;;;;22.73;20.85;;;19.20;99.90;;;;;;6212042;23;20044;-75
2023/06/20 05:38:00;;;;;;;22.95;20.80;;;19.10;99.90;;;;;;6213029;23;20012;-75
2023/06/20 05:40:26;;;;;;;24.25;22.08;;;19.10;99.90;;;;;;6212654;23;20018;-75
2023/06/20 05:42:51;;;;;;;23.17;21.17;;;19.10;99.90;;;;;;6212593;23;20044;-75
2023/06/20 05:45:17;;;;;;;23.70;21.70;;;19.30;99.90;;;;;;6212609;23;20403;-75
2023/06/20 05:47:44;;;;;;;23.35;21.25;;;19.20;99.90;;;;;;6162604;23;20299;-75
2023/06/20 05:50:09;;;;;;;23.58;21.48;;;19.40;99.90;;;;;;6212904;23;20020;-75
2023/06/20 05:52:35;;;;;;;22.58;20.67;;;19.40;99.90;;;;;;6212954;23;20017;-75
2023/06/20 05:55:01;;;;;;;21.50;19.77;;;19.40;99.90;;;;;;6187457;23;20020;-75
2023/06/20 05:57:27;;;;;;;23.80;21.77;;;19.50;99.90;;;;;;6187233;23;20046;-75
2023/06/20 05:59:53;;;;;;;23.30;21.25;;;19.60;99.90;;;;;;6211507;23;20461;-75
2023/06/20 06:02:20;;;;;;;23.95;21.95;;;19.60;99.90;;;;;;6212914;23;20040;-75
2023/06/20 06:04:47;;;;;;;23.52;21.55;;;19.70;99.90;;;;;;6212042;23;20015;-75
2023/06/20 06:07:12;;;;;;;24.67;22.48;;;19.80;99.90;;;;;;6187708;23;20009;-75
2023/06/20 06:09:38;;;;;;;23.40;21.38;;;19.70;99.90;;;;;;6213118;23;20012;-75
2023/06/20 06:12:04;;;;;;;23.23;21.23;;;19.70;99.90;;;;;;6210486;23;20532;-75
2023/06/20 06:14:29;;;;;;;22.95;20.85;;;19.70;99.90;;;;;;6212077;23;20012;-75
2023/06/20 06:16:55;;;;;;;24.58;22.35;;;19.80;99.90;;;;;;6212549;23;20491;-75
2023/06/20 06:19:21;;;;;;;22.98;20.98;;;20.00;99.90;;;;;;6218639;23;20134;-74
2023/06/20 06:21:47;;;;;;;22.15;20.30;;;20.10;99.90;;;;;;6237524;23;20448;-75
2023/06/20 06:24:13;;;;;;;23.92;21.60;;;20.20;99.90;;;;;;6235846;23;20013;-75
2023/06/20 06:26:38;;;;;;;23.90;21.80;;;20.30;99.90;;;;;;6237597;23;20051;-75
2023/06/20 06:29:04;;;;;;;22.95;20.95;;;20.40;99.90;;;;;;6238427;23;20016;-75
2023/06/20 06:31:33;;;;;;;23.10;21.00;;;20.50;99.90;;;;;;6237067;23;20004;-75
2023/06/20 06:34:01;;;;;;;22.02;20.15;;;20.70;99.90;;;;;;6186762;23;20009;-75
2023/06/20 06:36:28;;;;;;;22.10;19.83;;;20.80;99.90;;;;;;6237548;23;20015;-75
2023/06/20 06:38:54;;;;;;;21.70;19.83;;;20.80;99.90;;;;;;6237846;23;20008;-75
2023/06/20 06:41:21;;;;;;;21.92;20.13;;;20.90;99.90;;;;;;6237494;23;20468;-75
2023/06/20 06:43:47;;;;;;;20.90;19.13;;;20.90;99.90;;;;;;6237394;23;20056;-75
2023/06/20 06:46:12;;;;;;;21.63;19.73;;;21.00;99.90;;;;;;6236723;23;20151;-75
2023/06/20 06:48:38;;;;;;;21.15;19.45;;;21.10;99.90;;;;;;6237756;23;21334;-75
2023/06/20 06:51:04;;;;;;;21.23;19.23;;;21.10;99.90;;;;;;6187056;23;20349;-75
2023/06/20 06:53:29;;;;;;;19.95;18.35;;;21.10;99.90;;;;;;6237800;23;20345;-75
2023/06/20 06:55:55;;;;;;;20.85;19.13;;;21.20;99.90;;;;;;6236905;23;20511;-75
2023/06/20 06:58:20;;;;;;;20.48;18.77;;;21.20;99.90;;;;;;6237164;23;20017;-75
2023/06/20 07:00:46;;;;;;;20.73;19.02;;;21.30;99.90;;;;;;6237357;23;20063;-76
2023/06/20 07:03:12;;;;;;;20.98;19.25;;;21.40;99.90;;;;;;6237219;23;20024;-76
2023/06/20 07:05:38;;;;;;;21.88;20.08;;;21.40;99.90;;;;;;6236545;23;20020;-76
2023/06/20 07:08:03;;;;;;;21.08;19.15;;;21.40;99.90;;;;;;6236926;23;20348;-75
2023/06/20 07:10:29;;;;;;;20.60;18.98;;;21.50;99.90;;;;;;6236952;23;20491;-76
2023/06/20 07:12:55;;;;;;;20.52;18.83;;;21.60;99.90;;;;;;6237140;23;20020;-75
2023/06/20 07:15:20;;;;;;;20.38;18.55;;;21.70;99.90;;;;;;6236579;23;20093;-74
2023/06/20 07:17:46;;;;;;;20.40;18.60;;;21.80;99.90;;;;;;6235974;23;20021;-75
2023/06/20 07:20:12;;;;;;;19.40;17.90;;;22.00;99.90;;;;;;6236227;23;20100;-75
2023/06/20 07:22:38;;;;;;;18.95;17.35;;;22.20;99.90;;;;;;6210278;23;20040;-75
2023/06/20 07:25:04;;;;;;;19.13;17.63;;;22.20;99.90;;;;;;6236155;23;20013;-75
2023/06/20 07:27:30;;;;;;;18.70;17.20;;;22.20;99.90;;;;;;6236367;23;20066;-74
2023/06/20 07:29:55;;;;;;;19.67;18.02;;;22.20;99.90;;;;;;6237129;23;20017;-74
2023/06/20 07:32:21;;;;;;;19.67;18.08;;;22.30;99.90;;;;;;6237487;23;20055;-74
2023/06/20 07:34:48;;;;;;;19.67;18.02;;;22.30;99.90;;;;;;6237039;23;20027;-74
2023/06/20 07:37:14;;;;;;;19.65;17.90;;;22.40;99.90;;;;;;6237293;23;20013;-74
2023/06/20 07:39:42;;;;;;;19.02;17.48;;;22.40;99.90;;;;;;6237526;23;20008;-74
2023/06/20 07:42:09;;;;;;;20.42;18.75;;;22.30;99.90;;;;;;6237668;23;20436;-74
2023/06/20 07:44:34;;;;;;;19.67;18.17;;;22.40;99.90;;;;;;6236760;23;20020;-73
2023/06/20 07:47:00;;;;;;;19.88;18.05;;;22.30;99.90;;;;;;6186788;23;20009;-74
2023/06/20 07:49:26;;;;;;;20.02;18.52;;;22.30;99.90;;;;;;6235768;23;20473;-75
2023/06/20 07:51:52;;;;;;;20.40;18.70;;;22.30;99.90;;;;;;6235946;23;20012;-73
2023/06/20 07:54:17;;;;;;;19.00;17.40;;;22.30;99.90;;;;;;6237186;23;20493;-73
2023/06/20 07:56:43;;;;;;;19.35;17.85;;;22.20;99.90;;;;;;6236854;23;20349;-73
2023/06/20 07:59:09;;;;;;;19.15;17.55;;;22.20;99.90;;;;;;6187869;23;20405;-74
2023/06/20 08:01:34;;;;;;;20.70;18.83;;;22.20;99.90;;;;;;6237069;23;20088;-74
2023/06/20 08:04:00;;;;;;;19.60;18.05;;;22.20;99.90;;;;;;6236951;23;20013;-73
2023/06/20 08:06:25;;;;;;;20.10;18.33;;;22.10;99.90;;;;;;6213849;23;20013;-73
2023/06/20 08:08:51;;;;;;;20.77;18.80;;;22.10;99.90;;;;;;6237875;23;20356;-73
2023/06/20 08:11:21;;;;;;;19.98;18.35;;;22.10;99.90;;;;;;6238409;23;20017;-74
2023/06/20 08:13:46;;;;;;;19.75;18.25;;;22.30;99.90;;;;;;6238409;23;20062;-73
2023/06/20 08:16:12;;;;;;;21.30;19.35;;;22.40;99.90;;;;;;6214303;23;20453;-74
2023/06/20 08:18:37;;;;;;;20.25;18.58;;;22.50;99.90;;;;;;6237835;23;20019;-74
2023/06/20 08:21:03;;;;;;;19.45;17.98;;;22.50;99.90;;;;;;6213820;23;20012;-75
2023/06/20 08:23:29;;;;;;;20.88;18.98;;;22.40;99.90;;;;;;6212644;23;20016;-74
2023/06/20 08:25:55;;;;;;;21.08;19.17;;;22.40;99.90;;;;;;6212031;23;20044;-74
2023/06/20 08:28:24;;;;;;;21.33;19.30;;;22.40;99.90;;;;;;6213006;23;20461;-74
2023/06/20 08:30:50;;;;;;;20.35;18.67;;;22.40;99.90;;;;;;6188244;23;20013;-74
2023/06/20 08:33:17;;;;;;;20.00;18.40;;;22.50;99.90;;;;;;6188671;23;20079;-75
2023/06/20 08:35:43;;;;;;;20.15;18.52;;;22.50;99.90;;;;;;6212304;23;20080;-74
2023/06/20 08:38:09;;;;;;;19.50;17.75;;;22.60;99.90;;;;;;6211601;23;20016;-75
2023/06/20 08:40:35;;;;;;;19.70;18.20;;;22.80;99.90;;;;;;6212375;23;20400;-75
2023/06/20 08:43:01;;;;;;;18.92;17.42;;;22.90;99.90;;;;;;6188635;23;20071;-74
2023/06/20 08:45:27;;;;;;;18.45;16.95;;;23.10;99.90;;;;;;6213530;23;20016;-75
2023/06/20 08:47:58;;;;;;;17.80;16.50;;;23.50;99.90;;;;;;6211516;23;20147;-75
2023/06/20 08:50:24;;;;;;;19.25;17.75;;;23.90;99.90;;;;;;6213440;23;20020;-74
2023/06/20 08:52:55;;;;;;;18.75;17.05;;;24.20;99.90;;;;;;6213478;23;20038;-74
2023/06/20 08:55:22;;;;;;;19.10;17.50;;;24.40;99.90;;;;;;6163573;23;20012;-74
2023/06/20 08:57:48;;;;;;;18.98;17.48;;;24.60;99.90;;;;;;6213318;23;20012;-74
2023/06/20 09:00:20;;;;;;;17.92;16.63;;;25.10;99.90;;;;;;6213535;23;20019;-74
2023/06/20 09:02:50;;;;;;;17.23;15.93;;;25.70;99.90;;;;;;6213489;23;20023;-74
2023/06/20 09:05:17;;;;;;;23.08;16.27;;;26.10;99.90;;;;;;6163229;23;20012;-74
2023/06/20 09:07:43;;;;;;;23.48;14.75;;;26.60;99.90;;;;;;6212270;23;20475;-75
2023/06/20 09:10:15;;;;;;;16.33;13.50;;;27.40;99.90;;;;;;6212840;23;20012;-75
2023/06/20 09:12:58;;;;;;;16.48;13.00;;;28.10;99.90;;;;;;6213520;23;20008;-74
2023/06/20 09:15:27;;;;;;;17.65;12.65;;;28.60;97.30;;;;;;6212389;23;20020;-75
2023/06/20 09:17:55;;;;;;;21.85;12.25;;;29.00;94.40;;;;;;6212968;23;20022;-75
2023/06/20 09:20:25;;;;;;;12.73;10.90;;;29.20;85.00;;;;;;6231468;22;20013;-74
2023/06/20 09:22:50;;;;;;;15.75;11.07;;;29.60;90.30;;;;;;6237332;23;20023;-75
2023/06/20 09:25:21;;;;;;;12.30;11.30;;;30.00;81.20;;;;;;6238014;23;20338;-75
2023/06/20 09:27:47;;;;;;;11.07;10.02;;;30.50;70.10;;;;;;6236738;23;20012;-75
2023/06/20 09:30:13;;;;;;;11.80;10.80;;;30.60;70.60;;;;;;6214509;23;20005;-74
2023/06/20 09:32:40;;;;;;;11.02;10.05;;;30.60;66.90;;;;;;6237468;23;20087;-75
2023/06/20 09:35:08;;;;;;;11.00;9.82;;;30.40;68.70;;;;;;6237262;23;20469;-75
2023/06/20 09:37:39;;;;;;;10.48;9.68;;;30.50;71.50;;;;;;6237887;23;20030;-75
2023/06/20 09:40:08;;;;;;;10.73;9.73;;;30.90;69.60;;;;;;6238526;23;20471;-76
2023/06/20 09:42:34;;;;;;;10.80;9.70;;;31.20;69.30;;;;;;6211472;23;20084;-76
2023/06/20 09:44:59;;;;;;;10.65;9.68;;;31.50;67.60;;;;;;6212244;23;20063;-75
2023/06/20 09:47:25;;;;;;;9.15;8.35;;;32.00;62.20;;;;;;6212793;23;20057;-76
2023/06/20 09:49:52;;;;;;;9.32;8.52;;;31.80;62.10;;;;;;6238128;23;20066;-76
2023/06/20 09:52:18;;;;;;;7.95;7.25;;;31.70;62.30;;;;;;6212392;23;20017;-76
2023/06/20 09:55:00;;;;;;;7.63;6.95;;;31.80;59.90;;;;;;6237697;23;20075;-76
2023/06/20 09:57:42;;;;;;;7.53;6.38;;;31.30;61.70;;;;;;6212154;23;20395;-77
2023/06/20 10:00:15;;;;;;;7.90;6.40;;;31.40;63.90;;;;;;6212697;23;20015;-76
2023/06/20 10:02:45;;;;;;;12.45;6.53;;;31.90;62.80;;;;;;6212650;23;20013;-76
2023/06/20 10:05:16;;;;;;;8.48;6.50;;;32.40;61.20;;;;;;6213583;23;20027;-74
2023/06/20 10:07:43;;;;;;;7.43;6.82;;;32.80;57.00;;;;;;6236610;23;20005;-75
2023/06/20 10:10:10;;;;;;;6.78;6.25;;;32.70;56.10;;;;;;6212827;23;20034;-74
2023/06/20 10:12:37;;;;;;;6.75;6.07;;;32.20;57.30;;;;;;6238038;23;20449;-74
2023/06/20 10:15:03;;;;;;;6.93;6.32;;;32.00;57.10;;;;;;6187857;23;20013;-75
2023/06/20 10:17:31;;;;;;;7.15;6.53;;;31.70;58.00;;;;;;6237294;23;20356;-75
2023/06/20 10:19:58;;;;;;;7.32;6.72;;;31.60;58.70;;;;;;6211969;23;20017;-75
2023/06/20 10:22:35;;;;;;;6.50;5.82;;;31.80;58.60;;;;;;6214215;23;20005;-74
2023/06/20 10:25:03;;;;;;;6.80;6.20;;;32.10;59.00;;;;;;6212640;23;20013;-76
2023/06/20 10:27:29;;;;;;;8.27;7.47;;;32.50;59.20;;;;;;6212223;23;20047;-74
2023/06/20 10:29:54;;;;;;;7.15;6.50;;;32.80;58.50;;;;;;6237147;23;20012;-75
2023/06/20 10:32:20;;;;;;;7.05;6.00;;;33.30;57.00;;;;;;6238302;23;20341;-75
2023/06/20 10:34:50;;;;;;;6.88;6.18;;;33.60;57.50;;;;;;6214066;23;20020;-76
2023/06/20 10:37:24;;;;;;;8.48;6.60;;;34.30;52.10;;;;;;6235877;23;20021;-76
2023/06/20 10:39:57;;;;;;;6.93;6.22;;;33.70;54.90;;;;;;6186498;23;20016;-75
2023/06/20 10:42:49;;;;;;;7.60;7.00;;;34.00;54.50;;;;;;6212291;23;20013;-75
2023/06/20 10:45:20;;;;;;;7.20;6.60;;;34.30;52.30;;;;;;6208025;23;20027;-76
2023/06/20 10:47:46;;;;;;;5.82;5.32;;;33.90;54.20;;;;;;6211908;23;20024;-76
2023/06/20 10:50:13;;;;;;;7.88;7.18;;;34.00;54.40;;;;;;6212359;23;20080;-76
2023/06/20 10:52:39;;;;;;;7.68;6.60;;;34.40;53.80;;;;;;6238235;23;20436;-76
2023/06/20 10:55:26;;;;;;;29.75;7.05;;;34.60;53.30;;;;;;6186950;23;20016;-76
2023/06/20 10:57:52;;;;;;;5.75;5.25;;;34.70;53.90;;;;;;6211665;23;20044;-76
2023/06/20 11:00:20;;;;;;;19.95;7.07;;;34.80;52.00;;;;;;6212341;23;20016;-76
2023/06/20 11:02:53;;;;;;;7.90;6.78;;;35.30;51.10;;;;;;6212265;23;20020;-76
2023/06/20 11:05:25;;;;;;;6.70;6.10;;;35.50;51.00;;;;;;6212466;23;20087;-75
2023/06/20 11:07:53;;;;;;;7.00;6.40;;;35.90;50.90;;;;;;6210242;23;20019;-77
2023/06/20 11:10:37;;;;;;;6.25;5.65;;;36.10;47.90;;;;;;6186751;23;20017;-77
2023/06/20 11:13:04;;;;;;;6.10;5.10;;;35.80;48.80;;;;;;6237764;23;20009;-77
2023/06/20 11:15:34;;;;;;;6.32;5.72;;;35.80;50.00;;;;;;6212356;23;20024;-79
2023/06/20 11:18:02;;;;;;;6.15;5.57;;;35.90;49.90;;;;;;6211879;23;20091;-78
2023/06/20 11:20:28;;;;;;;6.55;5.57;;;36.00;49.60;;;;;;6210655;23;20023;-78
2023/06/20 11:22:56;;;;;;;6.18;5.53;;;36.20;49.40;;;;;;6237073;23;20360;-77
2023/06/20 11:25:39;;;;;;;6.25;5.70;;;36.30;48.90;;;;;;6187185;23;20178;-77
2023/06/20 11:28:08;;;;;;;;;;;36.60;48.50;;;;;;6237682;23;20015;-77
2023/06/20 11:30:37;;;;;;;7.43;6.40;;;36.80;46.80;;;;;;6211478;23;20003;-77
2023/06/20 11:33:09;;;;;;;10.88;5.85;;;36.60;47.10;;;;;;6212748;23;20012;-79
2023/06/20 11:35:41;;;;;;;7.25;6.65;;;35.90;49.10;;;;;;6213903;23;20013;-79
2023/06/20 11:38:10;;;;;;;7.68;6.88;;;35.90;48.60;;;;;;6188422;23;20349;-77
2023/06/20 11:40:38;;;;;;;7.57;6.88;;;35.50;48.70;;;;;;6214305;23;20345;-77
2023/06/20 11:43:04;;;;;;;8.35;7.55;;;34.70;50.20;;;;;;6214294;23;20092;-77
2023/06/20 11:45:30;;;;;;;7.80;7.15;;;34.10;51.10;;;;;;6238268;23;20016;-78
2023/06/20 11:48:13;;;;;;;6.72;6.03;;;33.70;51.70;;;;;;6238724;23;20066;-78
2023/06/20 11:50:42;;;;;;;7.15;6.55;;;33.20;53.50;;;;;;6239030;23;20011;-77
2023/06/20 11:53:21;;;;;;;37.20;7.35;;;32.90;53.50;;;;;;6189058;23;20012;-77
2023/06/20 11:55:52;;;;;;;6.53;5.45;;;32.80;53.60;;;;;;6214720;23;20009;-76
2023/06/20 11:58:18;;;;;;;6.05;5.25;;;32.60;53.60;;;;;;6237904;23;20024;-76
2023/06/20 12:00:47;;;;;;;5.97;5.47;;;32.80;54.20;;;;;;6237526;23;20012;-76
2023/06/20 12:03:16;;;;;;;5.63;5.10;;;33.30;53.50;;;;;;6213322;23;20017;-76
2023/06/20 12:05:42;;;;;;;6.32;5.70;;;33.90;52.70;;;;;;6237251;23;20020;-75
2023/06/20 12:08:08;;;;;;;8.30;5.68;;;34.50;51.80;;;;;;6238112;23;20017;-76
2023/06/20 12:10:39;;;;;;;8.00;5.60;;;34.90;50.70;;;;;;6188145;23;20117;-76
2023/06/20 12:13:04;;;;;;;5.97;5.47;;;34.60;51.00;;;;;;6187364;23;20051;-77
2023/06/20 12:15:30;;;;;;;6.15;5.57;;;34.50;51.50;;;;;;6236853;23;20397;-76
2023/06/20 12:17:56;;;;;;;6.20;5.70;;;34.60;51.20;;;;;;6236781;23;20020;-76
2023/06/20 12:20:22;;;;;;;5.57;5.07;;;34.70;51.20;;;;;;6237495;23;20017;-76
2023/06/20 12:22:48;;;;;;;11.43;5.40;;;34.50;51.00;;;;;;6236698;23;20012;-76
2023/06/20 12:25:14;;;;;;;5.53;5.03;;;34.30;50.50;;;;;;6211137;23;20017;-76
2023/06/20 12:27:40;;;;;;;6.43;5.82;;;33.50;52.70;;;;;;6211247;23;20036;-76
2023/06/20 12:30:07;;;;;;;6.13;5.50;;;32.70;53.20;;;;;;6237363;23;20012;-76
2023/06/20 12:32:34;;;;;;;5.78;5.28;;;32.20;54.40;;;;;;6211904;23;20446;-76
2023/06/20 12:35:01;;;;;;;6.30;5.20;;;31.80;55.50;;;;;;6238514;23;20020;-77